x

Cape Suckling - 35 Nm Se Of Kayak Is, Ak (46082) Wave Buoy

1:50am - Mon 25th Sep 2017 All times are AKDT. -8 hours from GMT.

  • Sig Wave height 6.2ft
  • Swell Direction
  • Peak Period 8s
  • Average Period 6s
  • Wind
    7mph, 11mph gusts
  • Sea Temp 54°f
  • Air Temp 49°f
  • Sea Pressure 1011mb
  • Cape Suckling - 35 Nm Se Of Kayak Is, Ak
  • Cape Suckling - 35 Nm Se Of Kayak Is, Ak

More Historic Weather Station data

Upgrade to MSW Pro to gain access to the past 30 days of data for over 8000 Wavebouys and Weather Stations around the globe.

Join

Comparision Forecast

View Surf forecast
   
Mon 09/25 1:50am 6ft 8s 6s 7 11 mph 1011mb 54f 49f
12:50am 6.5ft 10s 7s 11 13 mph 1010.4mb 54f 52f
Sun 09/24 11:50pm 7ft 10s 7s 9 11 mph 1010.1mb 54f 51f
10:50pm 6.5ft 10s 7s 11 16 mph 1009.5mb 54f 52f
9:50pm 6.5ft 11s 7s 11 16 mph 1009mb 54f 51f
8:50pm 6ft 9s 7s 9 11 mph 1008.4mb 54f 53f
7:50pm 7ft 11s 7s 11 13 mph 1007.8mb 54f 53f
6:50pm 7ft 9s 7s 11 18 mph 1007.1mb 54f 53f
5:50pm 6.5ft 9s 7s 11 11 mph 1006.5mb 54f 53f
4:50pm 6ft 9s 6s 9 11 mph 1006mb 54f 53f
3:50pm 6ft 9s 6s 13 16 mph 1005.8mb 54f 53f
2:50pm 5.5ft 8s 6s 11 13 mph 1005.5mb 54f 53f
1:50pm 5ft 10s 6s 11 13 mph 1005.3mb 54f 54f
12:50pm 5ft 10s 6s 11 13 mph 1004.6mb 54f 54f
11:50am 5.5ft 10s 6s 13 16 mph 1003.6mb 54f 54f
10:50am 5ft 10s 6s 13 18 mph 1002.5mb 54f 54f
9:50am 5ft 10s 6s 13 16 mph 1001.9mb 54f 53f
8:50am 5ft 11s 6s 9 11 mph 1001.4mb 54f 54f
7:50am 6ft 8s 6s 11 13 mph 1000.7mb 54f 54f
6:50am 6ft 8s 6s 11 16 mph 1000.2mb 54f 54f
5:50am 6.5ft 8s 6s 13 16 mph 999.9mb 54f 54f
4:50am 6ft 11s 6s 13 18 mph 999.8mb 54f 53f
3:50am 6.5ft 9s 6s 9 11 mph 999.9mb 54f 52f
2:50am 6.5ft 8s 6s 20 22 mph 999.8mb 54f 54f
1:50am 6.5ft 11s 6s 20 25 mph 1000.1mb 54f 54f
12:50am 6ft 10s 5s 22 29 mph 1000.6mb 54f 54f
Sat 09/23 11:50pm 6ft 11s 6s 20 25 mph 1001mb 54f 54f
10:50pm 5.5ft 10s 6s 18 22 mph 1001.4mb 54f 54f
9:50pm 5.5ft 11s 6s 18 20 mph 1001.7mb 54f 54f
8:50pm 5ft 11s 6s 18 20 mph 1002.2mb 54f 54f
7:50pm 5ft 11s 6s 18 20 mph 1002.4mb 54f 54f
6:50pm 5.5ft 11s 6s 16 20 mph 1003.1mb 54f 54f
5:50pm 6ft 11s 6s 16 20 mph 1003.6mb 54f 54f
4:50pm 6ft 11s 6s 18 22 mph 1004.2mb 54f 53f
3:50pm 6ft 11s 6s 18 20 mph 1004.7mb 54f 54f
2:50pm 6ft 11s 6s 18 22 mph 1005.4mb 54f 54f
1:50pm 6ft 11s 6s 20 22 mph 1005.8mb 54f 54f
12:50pm 6.5ft 11s 6s 18 20 mph 1006.4mb 54f 54f
11:50am 6ft 11s 6s 18 22 mph 1006.9mb 54f 54f
10:50am 6.5ft 11s 7s 16 20 mph 1007.6mb 54f 54f
9:50am 6.5ft 11s 7s 16 20 mph 1007.8mb 54f 53f
8:50am 6ft 11s 7s 13 18 mph 1008.2mb 54f 53f
7:50am 6ft 11s 7s 13 16 mph 1008.5mb 54f 53f
6:50am 6.5ft 11s 8s 11 16 mph 1009mb 54f 53f
5:50am 6ft 12s 7s 16 18 mph 1009.3mb 54f 53f
4:50am 6ft 10s 7s 13 16 mph 1009.9mb 54f 53f
3:50am 6ft 8s 7s 9 11 mph 1010.1mb 54f 53f
2:50am 6.5ft 9s 7s 11 13 mph 1010.4mb 54f 53f
1:50am 6ft 9s 7s 9 11 mph 1011mb 54f 53f
12:50am 7.5ft 9s 7s 9 11 mph 1011.4mb 54f 53f
Fri 09/22 11:50pm 8ft 8s 7s 7 9 mph 1011.7mb 54f 53f
10:50pm 7.5ft 8s 7s 9 9 mph 1011.6mb 54f 53f
9:50pm 7ft 8s 7s 4 7 mph 1011.6mb 54f 53f
8:50pm 7.5ft 8s 7s 4 7 mph 1011.6mb 54f 52f
7:50pm 7ft 8s 7s 11 13 mph 1011.2mb 54f 52f
6:50pm 6.5ft 9s 7s 11 13 mph 1011.4mb 54f 53f
5:50pm 6ft 8s 6s 9 9 mph 1011.6mb 54f 53f
4:50pm 5.5ft 8s 6s 4 7 mph 1011.5mb 54f 53f
3:50pm 6ft 8s 6s 9 11 mph 1011.2mb 54f 54f
2:50pm 7ft 8s 6s 7 9 mph 1011mb 54f 54f
1:50pm 7ft 9s 6s 9 11 mph 1010.8mb 54f 54f
12:50pm 7.5ft 8s 6s 11 13 mph 1010.6mb 54f 54f
11:50am 7.5ft 8s 6s 9 11 mph 1010.3mb 54f 54f
10:50am 8ft 8s 6s 9 11 mph 1009.7mb 54f 53f
9:50am 8ft 8s 6s 16 18 mph 1009.1mb 54f 53f
8:50am 8ft 6s 6s 9 11 mph 1008.6mb 54f 54f
7:50am 8ft 8s 6s 18 22 mph 1007.9mb 54f 53f
6:50am 8.5ft 7s 6s 22 27 mph 1007.6mb 54f 52f
5:50am 9ft 7s 6s 25 29 mph 1007.5mb 54f 52f
4:50am 9ft 7s  -  27 34 mph 1007mb 54f 52f
3:50am 9ft 8s 6s 29 38 mph 1006.8mb 54f 52f
2:50am 9.5ft 8s 6s 29 34 mph 1006.6mb 54f 53f
1:50am 11ft 7s 6s 31 38 mph 1006.9mb 54f 52f
12:50am 11ft 7s 6s 34 40 mph 1006.8mb 54f 52f
Thu 09/21 11:50pm 12.5ft 8s 6s 31 38 mph 1007mb 54f 52f
10:50pm 11.5ft 8s 6s 34 43 mph 1007.2mb 54f 52f
9:50pm 10.5ft 8s 6s 31 36 mph 1007.8mb 54f 52f
8:50pm 11ft 7s 6s 31 38 mph 1008.1mb 54f 51f
7:50pm 10ft 7s 6s 34 40 mph 1007.7mb 54f 52f
6:50pm 11ft 7s 6s 34 40 mph 1008.5mb 54f 52f
5:50pm 9.5ft 7s 6s 36 43 mph 1009mb 55f 52f
4:50pm 9ft 6s  -  29 34 mph 1010.4mb 55f 51f
3:50pm 7.5ft 6s 5s 34 40 mph 1010.2mb 55f 52f
2:50pm 6ft 5s 5s 29 36 mph 1012mb 55f 51f
1:50pm 4.5ft 4s 4s 31 38 mph 1011.1mb 55f 51f
12:50pm 4ft 4s 4s 22 29 mph 1013.8mb 55f 50f
11:50am 3.5ft 4s 4s 20 22 mph 1014.4mb 55f 50f